createdAt,value
2022-08-02T00:00:10.817Z,6.47
2022-08-02T00:02:37.841Z,5.25
2022-08-02T00:05:05.376Z,3.08
2022-08-02T00:07:35.181Z,4.82
2022-08-02T00:10:05.738Z,5.25
2022-08-02T00:12:32.426Z,5.53
2022-08-02T00:15:07.360Z,4.43
2022-08-02T00:17:33.976Z,5.75
2022-08-02T00:20:02.057Z,2.63
2022-08-02T00:22:28.806Z,2.72
2022-08-02T00:24:55.622Z,4.53
2022-08-02T00:27:22.230Z,6.10
2022-08-02T00:29:52.855Z,5.75
2022-08-02T00:32:20.067Z,7.07
2022-08-02T00:34:46.707Z,6.10
2022-08-02T00:37:13.359Z,4.18
2022-08-02T00:39:40.519Z,7.18
2022-08-02T00:42:07.603Z,4.13
2022-08-02T00:44:34.392Z,4.47
2022-08-02T00:47:01.510Z,5.50
2022-08-02T00:49:28.244Z,2.25
2022-08-02T00:51:54.854Z,3.75
2022-08-02T00:54:21.528Z,3.47
2022-08-02T00:56:49.578Z,3.45
2022-08-02T00:59:18.225Z,3.10
2022-08-02T01:01:56.176Z,4.35
2022-08-02T01:04:26.747Z,3.00
2022-08-02T01:07:00.075Z,4.80
2022-08-02T01:09:27.198Z,3.55
2022-08-02T01:11:54.000Z,3.97
2022-08-02T01:14:21.665Z,2.20
2022-08-02T01:17:08.715Z,3.90
2022-08-02T01:19:57.666Z,3.35
2022-08-02T01:23:04.545Z,3.30
2022-08-02T01:25:57.191Z,4.50
2022-08-02T01:28:26.762Z,6.07
2022-08-02T01:31:02.830Z,3.30
2022-08-02T01:33:36.536Z,3.08
2022-08-02T01:36:05.005Z,6.10
2022-08-02T01:38:42.123Z,3.65
2022-08-02T01:41:12.460Z,4.00
2022-08-02T01:43:42.334Z,6.40
2022-08-02T01:46:13.797Z,3.17
2022-08-02T01:48:41.699Z,4.60
2022-08-02T01:51:13.407Z,4.55
2022-08-02T01:53:44.011Z,3.63
2022-08-02T01:56:17.639Z,2.83
2022-08-02T01:58:46.718Z,3.08
2022-08-02T02:01:18.414Z,2.13
2022-08-02T02:03:50.159Z,4.10
2022-08-02T02:06:18.375Z,3.20
2022-08-02T02:08:45.610Z,4.97
2022-08-02T02:12:06.195Z,2.88
2022-08-02T02:14:02.108Z,3.15
2022-08-02T02:16:29.231Z,2.47
2022-08-02T02:18:55.809Z,8.27
2022-08-02T02:21:22.484Z,5.47
2022-08-02T02:23:52.226Z,5.18
2022-08-02T02:26:29.512Z,3.55
2022-08-02T02:29:08.333Z,3.78
2022-08-02T02:31:41.141Z,3.38
2022-08-02T02:34:34.013Z,3.83
2022-08-02T02:37:05.017Z,4.53
2022-08-02T02:39:33.425Z,7.50
2022-08-02T02:42:03.614Z,3.72
2022-08-02T02:44:32.237Z,3.60
2022-08-02T02:47:01.194Z,3.60
2022-08-02T02:49:31.904Z,4.20
2022-08-02T02:51:59.275Z,6.53
2022-08-02T02:54:34.068Z,3.58
2022-08-02T02:57:02.593Z,3.63
2022-08-02T02:59:30.331Z,7.38
2022-08-02T03:01:58.931Z,3.97
2022-08-02T03:04:55.333Z,5.68
2022-08-02T03:07:16.896Z,4.25
2022-08-02T03:09:44.053Z,2.75
2022-08-02T03:12:11.643Z,4.18
2022-08-02T03:14:44.809Z,2.90
2022-08-02T03:17:16.667Z,6.97
2022-08-02T03:19:43.402Z,6.20
2022-08-02T03:22:11.646Z,3.15
2022-08-02T03:24:39.030Z,3.30
2022-08-02T03:27:05.719Z,10.48
2022-08-02T03:29:34.612Z,4.55
2022-08-02T03:32:01.680Z,5.20
2022-08-02T03:34:28.257Z,9.05
2022-08-02T03:36:56.310Z,7.03
2022-08-02T03:39:23.787Z,8.23
2022-08-02T03:41:51.220Z,4.07
2022-08-02T03:44:17.910Z,7.57
2022-08-02T03:46:44.674Z,3.50
2022-08-02T03:49:12.740Z,4.97
2022-08-02T03:51:39.642Z,6.40
2022-08-02T03:54:06.604Z,3.53
2022-08-02T03:56:34.546Z,5.80
2022-08-02T03:59:12.682Z,7.25
2022-08-02T04:01:40.001Z,4.82
2022-08-02T04:04:07.693Z,5.05
2022-08-02T04:06:34.418Z,5.63
2022-08-02T04:09:01.202Z,5.32
2022-08-02T04:11:33.778Z,4.57
2022-08-02T04:14:07.465Z,3.93
2022-08-02T04:16:42.287Z,6.32
2022-08-02T04:19:15.024Z,2.60
2022-08-02T04:21:51.432Z,6.10
2022-08-02T04:24:28.045Z,5.32
2022-08-02T04:27:06.559Z,5.70
2022-08-02T04:29:47.213Z,10.18
2022-08-02T04:32:14.907Z,4.32
2022-08-02T04:34:47.393Z,4.70
2022-08-02T04:37:21.653Z,4.43
2022-08-02T04:39:48.341Z,5.10
2022-08-02T04:42:22.493Z,4.22
2022-08-02T04:44:49.695Z,7.50
2022-08-02T04:47:25.640Z,6.80
2022-08-02T04:50:01.325Z,5.60
2022-08-02T04:52:28.049Z,8.68
2022-08-02T04:54:54.638Z,3.55
2022-08-02T04:57:51.201Z,8.57
2022-08-02T05:00:20.118Z,3.95
2022-08-02T05:02:46.917Z,5.85
2022-08-02T05:05:13.721Z,11.93
2022-08-02T05:07:40.318Z,8.13
2022-08-02T05:10:07.407Z,3.85
2022-08-02T05:12:34.104Z,8.20
2022-08-02T05:15:00.881Z,4.68
2022-08-02T05:17:27.489Z,6.70
2022-08-02T05:19:54.061Z,5.57
2022-08-02T05:22:20.655Z,3.58
2022-08-02T05:24:47.257Z,10.00
2022-08-02T05:27:21.187Z,7.50
2022-08-02T05:29:53.097Z,7.43
2022-08-02T05:32:20.800Z,4.47
2022-08-02T05:34:50.366Z,7.55
2022-08-02T05:37:17.087Z,10.48
2022-08-02T05:39:56.008Z,9.30
2022-08-02T05:42:23.634Z,7.75
2022-08-02T05:44:50.445Z,10.82
2022-08-02T05:47:17.194Z,8.18
2022-08-02T05:49:43.805Z,6.75
2022-08-02T05:52:17.300Z,14.00
2022-08-02T05:55:36.584Z,8.88
2022-08-02T05:58:11.115Z,14.40
2022-08-02T06:00:40.782Z,6.53
2022-08-02T06:03:10.027Z,13.13
2022-08-02T06:05:40.968Z,9.80
2022-08-02T06:08:10.831Z,8.05
2022-08-02T06:10:40.262Z,10.60
2022-08-02T06:13:14.667Z,10.68
2022-08-02T06:15:53.560Z,8.23
2022-08-02T06:18:27.727Z,10.63
2022-08-02T06:22:29.565Z,8.18
2022-08-02T06:23:58.104Z,10.32
2022-08-02T06:26:27.924Z,6.95
2022-08-02T06:28:57.098Z,11.63
2022-08-02T06:31:23.899Z,6.05
2022-08-02T06:33:50.495Z,8.70
2022-08-02T06:36:25.222Z,6.47
2022-08-02T06:39:13.345Z,5.97
2022-08-02T06:41:42.431Z,8.40
2022-08-02T06:44:43.087Z,9.88
2022-08-02T06:47:10.793Z,6.10
2022-08-02T06:49:53.353Z,8.15
2022-08-02T06:52:28.313Z,8.05
2022-08-02T06:55:00.611Z,8.70
2022-08-02T06:57:28.417Z,8.43
2022-08-02T06:59:55.267Z,9.20
2022-08-02T07:02:22.297Z,5.65
2022-08-02T07:04:49.206Z,6.70
2022-08-02T07:07:18.941Z,5.18
2022-08-02T07:09:56.697Z,5.22
2022-08-02T07:12:31.716Z,7.78
2022-08-02T07:15:04.662Z,5.82
2022-08-02T07:17:31.827Z,7.45
2022-08-02T07:19:59.269Z,7.43
2022-08-02T07:22:28.113Z,11.85
2022-08-02T07:25:00.743Z,4.93
2022-08-02T07:27:27.695Z,4.60
2022-08-02T07:29:54.827Z,7.30
2022-08-02T07:32:24.287Z,6.43
2022-08-02T07:34:55.134Z,5.07
2022-08-02T07:37:35.327Z,5.97
2022-08-02T07:40:14.749Z,8.15
2022-08-02T07:42:43.903Z,5.43
2022-08-02T07:45:12.512Z,6.55
2022-08-02T07:47:40.840Z,5.28
2022-08-02T07:50:08.769Z,9.00
2022-08-02T07:52:35.956Z,2.60
2022-08-02T07:55:02.523Z,4.70
2022-08-02T07:57:29.345Z,4.93
2022-08-02T07:59:55.888Z,4.05
2022-08-02T08:02:24.672Z,3.35
2022-08-02T08:04:52.139Z,6.18
2022-08-02T08:07:18.867Z,2.22
2022-08-02T08:09:47.430Z,4.97
2022-08-02T08:12:16.842Z,3.55
2022-08-02T08:14:44.047Z,1.95
2022-08-02T08:17:10.791Z,3.20
2022-08-02T08:19:51.222Z,4.88
2022-08-02T08:22:22.694Z,4.10
2022-08-02T08:24:49.778Z,1.80
2022-08-02T08:27:18.251Z,4.75
2022-08-02T08:29:45.998Z,5.68
2022-08-02T08:32:17.773Z,3.70
2022-08-02T08:34:46.232Z,2.03
2022-08-02T08:37:17.128Z,2.85
2022-08-02T08:39:57.513Z,4.65
2022-08-02T08:42:30.657Z,4.07
2022-08-02T08:44:58.813Z,3.08
2022-08-02T08:47:37.613Z,5.75
2022-08-02T08:50:21.304Z,5.43
2022-08-02T08:52:52.023Z,1.17
2022-08-02T08:55:23.056Z,1.23
2022-08-02T08:57:49.856Z,1.58
2022-08-02T09:00:16.966Z,1.58
2022-08-02T09:02:44.376Z,2.13
2022-08-02T09:05:13.687Z,1.35
2022-08-02T09:07:42.793Z,5.88
2022-08-02T09:10:48.462Z,4.47
2022-08-02T09:13:39.066Z,1.05
2022-08-02T09:16:12.487Z,2.45
2022-08-02T09:18:47.098Z,2.22
2022-08-02T09:21:16.313Z,3.55
2022-08-02T09:23:51.913Z,2.80
2022-08-02T09:26:23.378Z,1.27
2022-08-02T09:28:53.161Z,1.15
2022-08-02T09:31:24.495Z,1.08
2022-08-02T09:33:57.761Z,2.72
2022-08-02T09:36:25.416Z,1.98
2022-08-02T09:38:54.182Z,0.93
2022-08-02T09:41:23.118Z,3.10
2022-08-02T09:44:03.053Z,3.35
2022-08-02T09:46:39.318Z,1.43
2022-08-02T09:49:13.509Z,3.05
2022-08-02T09:51:49.216Z,1.42
2022-08-02T09:54:25.997Z,1.73
2022-08-02T09:57:02.212Z,1.38
2022-08-02T09:59:30.032Z,1.27
2022-08-02T10:02:01.509Z,2.78
2022-08-02T10:04:31.545Z,2.00
2022-08-02T10:06:59.784Z,2.05
2022-08-02T10:09:28.994Z,5.28
2022-08-02T10:11:56.011Z,3.83
2022-08-02T10:14:23.862Z,2.10
2022-08-02T10:16:50.720Z,1.00
2022-08-02T10:19:17.542Z,4.13
2022-08-02T10:22:13.199Z,2.17
2022-08-02T10:24:48.481Z,3.45
2022-08-02T10:27:20.237Z,2.15
2022-08-02T10:29:53.800Z,2.75
2022-08-02T10:32:37.544Z,3.70
2022-08-02T10:35:19.803Z,1.08
2022-08-02T10:37:56.163Z,2.80
2022-08-02T10:40:23.239Z,3.05
2022-08-02T10:42:55.087Z,2.63
2022-08-02T10:45:23.003Z,8.95
2022-08-02T10:48:01.272Z,5.07
2022-08-02T10:50:46.985Z,1.95
2022-08-02T10:53:32.786Z,1.77
2022-08-02T10:56:06.164Z,3.38
2022-08-02T10:58:36.034Z,7.10
2022-08-02T11:01:26.848Z,3.10
2022-08-02T11:04:08.408Z,0.80
2022-08-02T11:07:16.899Z,2.42
2022-08-02T11:09:45.036Z,2.85
2022-08-02T11:12:16.987Z,5.25
2022-08-02T11:14:46.140Z,3.25
2022-08-02T11:17:17.877Z,6.07
2022-08-02T11:20:12.594Z,4.53
2022-08-02T11:22:40.264Z,2.25
2022-08-02T11:25:24.868Z,2.35
2022-08-02T11:27:53.080Z,0.82
2022-08-02T11:30:26.529Z,1.33
2022-08-02T11:33:00.989Z,9.48
2022-08-02T11:35:36.156Z,1.85
2022-08-02T11:38:17.834Z,3.15
2022-08-02T11:40:45.639Z,4.38
2022-08-02T11:43:38.940Z,1.08
2022-08-02T11:46:13.246Z,1.52
2022-08-02T11:48:41.987Z,1.42
2022-08-02T11:51:13.399Z,7.88
2022-08-02T11:53:48.469Z,3.42
2022-08-02T11:56:21.744Z,1.90
2022-08-02T11:59:09.191Z,4.22
2022-08-02T12:01:45.044Z,4.32
2022-08-02T12:04:17.073Z,3.58
2022-08-02T12:06:44.037Z,1.70
2022-08-02T12:09:18.227Z,1.55
2022-08-02T12:11:51.360Z,3.55
2022-08-02T12:14:18.770Z,3.80
2022-08-02T12:17:04.963Z,2.50
2022-08-02T12:19:31.725Z,2.22
2022-08-02T12:22:17.346Z,2.20
2022-08-02T12:24:49.972Z,2.90
2022-08-02T12:27:38.177Z,4.10
2022-08-02T12:30:10.355Z,3.63
2022-08-02T12:32:37.607Z,2.87
2022-08-02T12:35:09.034Z,1.58
2022-08-02T12:37:37.589Z,0.98
2022-08-02T12:40:25.792Z,2.53
2022-08-02T12:42:58.732Z,2.05
2022-08-02T12:45:40.797Z,4.68
2022-08-02T12:48:09.420Z,1.90
2022-08-02T12:50:39.492Z,0.85
2022-08-02T12:53:12.026Z,0.75
2022-08-02T12:56:03.446Z,4.47
2022-08-02T12:58:46.043Z,4.07
2022-08-02T13:01:12.658Z,3.65
2022-08-02T13:04:11.062Z,1.13
2022-08-02T13:06:42.958Z,1.60
2022-08-02T13:09:16.794Z,3.53
2022-08-02T13:11:44.291Z,1.50
2022-08-02T13:14:12.344Z,3.22
2022-08-02T13:16:40.202Z,4.90
2022-08-02T13:19:06.811Z,1.45
2022-08-02T13:21:40.718Z,0.82
2022-08-02T13:24:33.276Z,1.40
2022-08-02T13:26:55.222Z,4.63
2022-08-02T13:29:21.983Z,2.83
2022-08-02T13:31:48.586Z,3.80
2022-08-02T13:34:16.608Z,6.30
2022-08-02T13:36:43.497Z,1.42
2022-08-02T13:39:11.986Z,3.45
2022-08-02T13:41:38.576Z,2.30
2022-08-02T13:44:10.489Z,5.78
2022-08-02T13:46:45.319Z,2.35
2022-08-02T13:49:18.274Z,5.45
2022-08-02T13:51:45.262Z,3.95
2022-08-02T13:54:11.775Z,6.50
2022-08-02T13:56:38.467Z,1.00
2022-08-02T13:59:23.754Z,1.10
2022-08-02T14:01:52.568Z,4.78
2022-08-02T14:04:19.225Z,1.75
2022-08-02T14:06:45.850Z,5.07
2022-08-02T14:09:15.735Z,6.35
2022-08-02T14:11:44.067Z,3.33
2022-08-02T14:14:15.380Z,2.72
2022-08-02T14:16:44.486Z,2.95
2022-08-02T14:19:16.727Z,7.72
2022-08-02T14:21:46.839Z,5.63
2022-08-02T14:24:18.089Z,2.42
2022-08-02T14:26:45.863Z,5.18
2022-08-02T14:29:13.540Z,3.90
2022-08-02T14:31:44.259Z,2.35
2022-08-02T14:34:12.806Z,4.78
2022-08-02T14:36:39.471Z,5.13
2022-08-02T14:39:06.403Z,5.40
2022-08-02T14:41:58.610Z,4.45
2022-08-02T14:44:20.754Z,3.88
2022-08-02T14:46:47.438Z,3.75
2022-08-02T14:49:24.459Z,2.60
2022-08-02T14:51:53.854Z,5.90
2022-08-02T14:54:20.790Z,4.70
2022-08-02T14:56:55.876Z,3.85
2022-08-02T14:59:22.478Z,4.13
2022-08-02T15:01:49.093Z,2.50
2022-08-02T15:04:15.898Z,2.42
2022-08-02T15:06:42.472Z,8.07
2022-08-02T15:09:09.024Z,5.43
2022-08-02T15:11:48.034Z,1.83
2022-08-02T15:14:21.977Z,2.63
2022-08-02T15:16:57.931Z,4.38
2022-08-02T15:19:28.742Z,1.67
2022-08-02T15:22:14.346Z,4.20
2022-08-02T15:24:43.059Z,4.40
2022-08-02T15:27:13.489Z,3.58
2022-08-02T15:29:40.883Z,2.03
2022-08-02T15:32:08.195Z,6.85
2022-08-02T15:34:34.916Z,4.32
2022-08-02T15:37:01.934Z,3.03
2022-08-02T15:39:28.626Z,5.10
2022-08-02T15:41:55.309Z,4.07
2022-08-02T15:44:24.887Z,4.05
2022-08-02T15:46:53.321Z,8.63
2022-08-02T15:49:23.504Z,6.05
2022-08-02T15:51:51.211Z,4.20
2022-08-02T15:54:17.998Z,3.38
2022-08-02T15:56:44.672Z,10.65
2022-08-02T15:59:11.563Z,4.95
2022-08-02T16:01:40.330Z,10.90
2022-08-02T16:04:10.213Z,3.10
2022-08-02T16:06:36.933Z,2.42
2022-08-02T16:09:04.244Z,3.03
2022-08-02T16:11:31.039Z,2.42
2022-08-02T16:13:59.121Z,3.97
2022-08-02T16:16:28.335Z,6.18
2022-08-02T16:18:55.570Z,3.55
2022-08-02T16:21:25.770Z,2.63
2022-08-02T16:23:59.206Z,1.70
2022-08-02T16:26:29.956Z,2.08
2022-08-02T16:28:57.669Z,4.10
2022-08-02T16:31:24.328Z,2.13
2022-08-02T16:33:50.906Z,2.85
2022-08-02T16:36:23.954Z,4.85
2022-08-02T16:38:50.590Z,4.60
2022-08-02T16:41:17.212Z,5.60
2022-08-02T16:43:43.875Z,5.95
2022-08-02T16:46:10.460Z,6.13
2022-08-02T16:48:37.324Z,2.58
2022-08-02T16:51:04.622Z,6.20
2022-08-02T16:53:37.037Z,6.97
2022-08-02T16:56:06.892Z,3.92
2022-08-02T16:58:33.841Z,5.78
2022-08-02T17:01:00.515Z,8.98
2022-08-02T17:03:55.608Z,3.97
2022-08-02T17:06:16.107Z,1.75
2022-08-02T17:08:54.461Z,5.22
2022-08-02T17:11:21.795Z,8.55
2022-08-02T17:13:58.977Z,6.75
2022-08-02T17:16:27.664Z,5.68
2022-08-02T17:18:54.945Z,4.80
2022-08-02T17:21:21.673Z,5.97
2022-08-02T17:24:05.134Z,3.42
2022-08-02T17:26:36.558Z,6.88
2022-08-02T17:29:15.300Z,10.23
2022-08-02T17:32:04.924Z,2.55
2022-08-02T17:34:31.718Z,5.07
2022-08-02T17:36:58.357Z,3.70
2022-08-02T17:39:24.948Z,7.10
2022-08-02T17:42:00.877Z,6.97
2022-08-02T17:44:37.754Z,3.05
2022-08-02T17:47:11.649Z,6.68
2022-08-02T17:49:43.754Z,6.05
2022-08-02T17:52:50.912Z,3.67
2022-08-02T17:55:03.470Z,6.60
2022-08-02T17:57:55.250Z,9.13
2022-08-02T18:00:17.953Z,3.30
2022-08-02T18:02:52.975Z,10.13
2022-08-02T18:05:38.926Z,4.82
2022-08-02T18:08:08.106Z,2.33
2022-08-02T18:10:39.933Z,2.75
2022-08-02T18:13:13.534Z,6.50
2022-08-02T18:15:47.450Z,5.10
2022-08-02T18:18:29.443Z,1.80
2022-08-02T18:21:16.271Z,8.45
2022-08-02T18:23:58.638Z,5.68
2022-08-02T18:26:28.656Z,3.88
2022-08-02T18:28:57.666Z,6.00
2022-08-02T18:31:27.479Z,6.68
2022-08-02T18:34:02.060Z,4.88
2022-08-02T18:36:31.737Z,3.78
2022-08-02T18:39:00.365Z,12.13
2022-08-02T18:41:38.350Z,5.88
2022-08-02T18:44:06.176Z,3.60
2022-08-02T18:46:33.946Z,7.07
2022-08-02T18:49:06.651Z,2.35
2022-08-02T18:51:40.735Z,5.85
2022-08-02T18:58:17.804Z,4.90
2022-08-02T19:00:09.108Z,4.72
2022-08-02T19:02:40.679Z,6.57
2022-08-02T19:08:59.768Z,2.17
2022-08-02T19:11:35.198Z,2.53
2022-08-02T19:14:12.484Z,5.82
2022-08-02T19:16:46.654Z,6.97
2022-08-02T19:19:19.394Z,4.50
2022-08-02T19:22:18.016Z,6.97
2022-08-02T19:25:02.285Z,5.88
2022-08-02T19:27:50.629Z,7.03
2022-08-02T19:30:25.817Z,4.43
2022-08-02T19:33:09.522Z,2.83
2022-08-02T19:36:02.070Z,6.30
2022-08-02T19:38:33.273Z,7.05
2022-08-02T19:41:02.986Z,9.55
2022-08-02T19:44:23.585Z,5.18
2022-08-02T19:46:49.180Z,8.88
2022-08-02T19:49:39.636Z,7.93
2022-08-02T19:54:55.202Z,7.63
2022-08-02T19:57:25.266Z,11.60
2022-08-02T19:59:54.055Z,7.45
2022-08-02T20:02:21.332Z,9.73
2022-08-02T20:04:50.320Z,7.55
2022-08-02T20:07:55.092Z,8.60
2022-08-02T20:10:11.606Z,13.02
2022-08-02T20:12:40.033Z,6.97
2022-08-02T20:15:14.666Z,5.38
2022-08-02T20:17:47.331Z,9.98
2022-08-02T20:20:14.844Z,7.18
2022-08-02T20:22:59.945Z,7.60
2022-08-02T20:25:29.129Z,10.52
2022-08-02T20:27:55.848Z,12.32
2022-08-02T20:30:25.562Z,10.73
2022-08-02T20:32:58.901Z,11.20
2022-08-02T20:35:41.377Z,9.32
2022-08-02T20:38:11.982Z,21.48
2022-08-02T20:40:38.743Z,11.25
2022-08-02T20:43:05.344Z,10.48
2022-08-02T20:45:34.398Z,8.48
2022-08-02T20:48:01.003Z,15.77
2022-08-02T20:50:46.681Z,8.90
2022-08-02T20:53:23.687Z,12.45
2022-08-02T20:55:54.089Z,11.95
2022-08-02T20:58:26.902Z,11.23
2022-08-02T21:00:56.757Z,9.98
2022-08-02T21:03:23.482Z,10.43
2022-08-02T21:05:54.850Z,10.82
2022-08-02T21:08:22.439Z,11.80
2022-08-02T21:10:52.527Z,10.65
2022-08-02T21:13:24.335Z,9.60
2022-08-02T21:15:55.481Z,10.85
2022-08-02T21:18:35.906Z,9.98
2022-08-02T21:21:08.715Z,14.02
2022-08-02T21:23:36.366Z,8.07
2022-08-02T21:26:04.303Z,13.73
2022-08-02T21:28:43.708Z,11.52
2022-08-02T21:31:15.592Z,11.10
2022-08-02T21:33:57.957Z,16.00
2022-08-02T21:36:33.051Z,15.38
2022-08-02T21:39:09.330Z,10.50
2022-08-02T21:44:24.996Z,11.73
2022-08-02T21:46:54.372Z,15.00
2022-08-02T21:49:27.271Z,8.63
2022-08-02T21:52:09.223Z,9.55
2022-08-02T21:54:40.010Z,9.55
2022-08-02T21:57:07.693Z,10.13
2022-08-02T21:59:45.404Z,9.80
2022-08-02T22:02:12.447Z,12.38
2022-08-02T22:04:39.027Z,15.23
2022-08-02T22:07:05.641Z,8.95
2022-08-02T22:09:42.862Z,10.15
2022-08-02T22:12:18.202Z,5.75
2022-08-02T22:14:54.131Z,11.60
2022-08-02T22:17:50.737Z,12.88
2022-08-02T22:20:15.488Z,10.55
2022-08-02T22:22:45.115Z,9.97
2022-08-02T22:25:27.154Z,11.00
2022-08-02T22:28:36.698Z,10.32
2022-08-02T22:30:52.610Z,11.27
2022-08-02T22:33:38.231Z,14.48
2022-08-02T22:36:11.410Z,8.98
2022-08-02T22:38:38.445Z,7.00
2022-08-02T22:41:11.800Z,7.85
2022-08-02T22:43:38.678Z,6.35
2022-08-02T22:46:06.062Z,7.65
2022-08-02T22:48:35.974Z,10.50
2022-08-02T22:51:06.788Z,14.40
2022-08-02T22:53:35.497Z,7.05
2022-08-02T22:56:03.994Z,8.73
2022-08-02T22:58:31.777Z,10.75
2022-08-02T22:59:06.869Z,9.60
2022-08-02T22:59:11.343Z,9.65
2022-08-02T23:00:58.726Z,9.52
2022-08-02T23:03:25.455Z,14.10
2022-08-02T23:05:52.330Z,15.30
2022-08-02T23:08:19.361Z,11.75
2022-08-02T23:10:45.938Z,10.00
2022-08-02T23:13:12.606Z,8.43
2022-08-02T23:15:58.834Z,10.38
2022-08-02T23:18:44.505Z,11.15
2022-08-02T23:21:11.374Z,8.23
2022-08-02T23:23:38.018Z,9.90
2022-08-02T23:26:04.774Z,9.13
2022-08-02T23:28:31.546Z,10.43
2022-08-02T23:30:58.217Z,9.95
2022-08-02T23:33:24.878Z,14.43
2022-08-02T23:35:51.582Z,15.35
2022-08-02T23:38:18.442Z,12.93
2022-08-02T23:40:45.046Z,13.25
2022-08-02T23:43:14.230Z,14.65
2022-08-02T23:45:46.385Z,11.90
2022-08-02T23:48:13.807Z,13.25
2022-08-02T23:50:40.472Z,11.05
2022-08-02T23:53:07.093Z,10.07
2022-08-02T23:55:33.753Z,10.00
2022-08-02T23:58:00.484Z,10.60
